sensor_id;sensor_type;location;lat;lon;timestamp;P1;durP1;ratioP1;P2;durP2;ratioP2
36415;SDS011;22447;44.530;18.620;2023-09-19T00:01:42;22.50;;;18.25;;
36415;SDS011;22447;44.530;18.620;2023-09-19T00:04:11;28.38;;;18.30;;
36415;SDS011;22447;44.530;18.620;2023-09-19T00:06:38;24.67;;;17.75;;
36415;SDS011;22447;44.530;18.620;2023-09-19T00:09:04;25.33;;;17.42;;
36415;SDS011;22447;44.530;18.620;2023-09-19T00:11:35;24.70;;;16.85;;
36415;SDS011;22447;44.530;18.620;2023-09-19T00:14:03;19.90;;;15.38;;
36415;SDS011;22447;44.530;18.620;2023-09-19T00:16:30;27.58;;;17.83;;
36415;SDS011;22447;44.530;18.620;2023-09-19T00:18:57;24.38;;;16.63;;
36415;SDS011;22447;44.530;18.620;2023-09-19T00:21:24;28.20;;;16.88;;
36415;SDS011;22447;44.530;18.620;2023-09-19T00:23:50;23.23;;;15.90;;
36415;SDS011;22447;44.530;18.620;2023-09-19T00:26:17;23.38;;;16.85;;
36415;SDS011;22447;44.530;18.620;2023-09-19T00:28:46;23.40;;;16.70;;
36415;SDS011;22447;44.530;18.620;2023-09-19T00:31:12;26.70;;;17.08;;
36415;SDS011;22447;44.530;18.620;2023-09-19T00:33:38;24.50;;;17.50;;
36415;SDS011;22447;44.530;18.620;2023-09-19T00:36:04;24.17;;;16.92;;
36415;SDS011;22447;44.530;18.620;2023-09-19T00:38:30;24.70;;;17.48;;
36415;SDS011;22447;44.530;18.620;2023-09-19T00:40:57;24.42;;;16.83;;
36415;SDS011;22447;44.530;18.620;2023-09-19T00:43:25;22.50;;;16.23;;
36415;SDS011;22447;44.530;18.620;2023-09-19T00:45:53;24.08;;;17.50;;
36415;SDS011;22447;44.530;18.620;2023-09-19T00:48:20;24.40;;;17.45;;
36415;SDS011;22447;44.530;18.620;2023-09-19T00:50:47;24.52;;;16.60;;
36415;SDS011;22447;44.530;18.620;2023-09-19T00:53:19;23.90;;;16.77;;
36415;SDS011;22447;44.530;18.620;2023-09-19T00:55:48;22.15;;;16.35;;
36415;SDS011;22447;44.530;18.620;2023-09-19T00:58:16;23.13;;;15.93;;
36415;SDS011;22447;44.530;18.620;2023-09-19T01:00:44;22.38;;;16.05;;
36415;SDS011;22447;44.530;18.620;2023-09-19T01:03:11;20.75;;;14.80;;
36415;SDS011;22447;44.530;18.620;2023-09-19T01:05:39;26.20;;;16.08;;
36415;SDS011;22447;44.530;18.620;2023-09-19T01:08:05;20.52;;;15.57;;
36415;SDS011;22447;44.530;18.620;2023-09-19T01:10:32;18.88;;;13.82;;
36415;SDS011;22447;44.530;18.620;2023-09-19T01:22:11;21.13;;;15.70;;
36415;SDS011;22447;44.530;18.620;2023-09-19T01:24:54;21.05;;;14.68;;
36415;SDS011;22447;44.530;18.620;2023-09-19T01:30:24;24.65;;;16.98;;
36415;SDS011;22447;44.530;18.620;2023-09-19T01:32:54;23.35;;;17.45;;
36415;SDS011;22447;44.530;18.620;2023-09-19T01:35:21;19.42;;;16.33;;
36415;SDS011;22447;44.530;18.620;2023-09-19T01:37:47;23.88;;;16.45;;
36415;SDS011;22447;44.530;18.620;2023-09-19T01:40:18;26.10;;;15.27;;
36415;SDS011;22447;44.530;18.620;2023-09-19T01:42:57;21.85;;;15.80;;
36415;SDS011;22447;44.530;18.620;2023-09-19T01:51:06;20.50;;;15.50;;
36415;SDS011;22447;44.530;18.620;2023-09-19T01:56:05;18.77;;;15.27;;
36415;SDS011;22447;44.530;18.620;2023-09-19T01:58:48;24.85;;;15.30;;
36415;SDS011;22447;44.530;18.620;2023-09-19T02:01:20;21.52;;;15.32;;
36415;SDS011;22447;44.530;18.620;2023-09-19T02:03:49;28.88;;;15.77;;
36415;SDS011;22447;44.530;18.620;2023-09-19T02:06:16;24.90;;;16.48;;
36415;SDS011;22447;44.530;18.620;2023-09-19T02:08:43;23.27;;;17.48;;
36415;SDS011;22447;44.530;18.620;2023-09-19T02:11:12;25.27;;;16.90;;
36415;SDS011;22447;44.530;18.620;2023-09-19T02:13:39;24.63;;;17.23;;
36415;SDS011;22447;44.530;18.620;2023-09-19T02:16:06;26.75;;;17.55;;
36415;SDS011;22447;44.530;18.620;2023-09-19T02:18:32;23.08;;;16.92;;
36415;SDS011;22447;44.530;18.620;2023-09-19T02:21:02;23.63;;;16.90;;
36415;SDS011;22447;44.530;18.620;2023-09-19T02:23:29;23.55;;;17.10;;
36415;SDS011;22447;44.530;18.620;2023-09-19T02:25:58;23.58;;;15.95;;
36415;SDS011;22447;44.530;18.620;2023-09-19T02:28:29;27.35;;;18.02;;
36415;SDS011;22447;44.530;18.620;2023-09-19T02:30:58;22.90;;;16.50;;
36415;SDS011;22447;44.530;18.620;2023-09-19T02:33:24;23.08;;;17.48;;
36415;SDS011;22447;44.530;18.620;2023-09-19T02:35:56;22.50;;;16.88;;
36415;SDS011;22447;44.530;18.620;2023-09-19T02:38:24;20.88;;;15.77;;
36415;SDS011;22447;44.530;18.620;2023-09-19T02:40:51;25.17;;;16.92;;
36415;SDS011;22447;44.530;18.620;2023-09-19T02:43:18;24.90;;;18.00;;
36415;SDS011;22447;44.530;18.620;2023-09-19T02:45:47;23.80;;;17.70;;
36415;SDS011;22447;44.530;18.620;2023-09-19T02:48:18;20.90;;;16.13;;
36415;SDS011;22447;44.530;18.620;2023-09-19T02:50:45;26.30;;;16.40;;
36415;SDS011;22447;44.530;18.620;2023-09-19T02:53:14;24.83;;;16.88;;
36415;SDS011;22447;44.530;18.620;2023-09-19T02:55:40;21.42;;;16.25;;
36415;SDS011;22447;44.530;18.620;2023-09-19T02:58:08;23.33;;;16.92;;
36415;SDS011;22447;44.530;18.620;2023-09-19T03:00:36;22.08;;;16.95;;
36415;SDS011;22447;44.530;18.620;2023-09-19T03:03:02;25.45;;;18.17;;
36415;SDS011;22447;44.530;18.620;2023-09-19T03:05:30;22.42;;;16.70;;
36415;SDS011;22447;44.530;18.620;2023-09-19T03:07:56;22.42;;;16.95;;
36415;SDS011;22447;44.530;18.620;2023-09-19T03:10:25;23.35;;;16.40;;
36415;SDS011;22447;44.530;18.620;2023-09-19T03:12:53;21.77;;;16.58;;
36415;SDS011;22447;44.530;18.620;2023-09-19T03:15:20;21.98;;;17.35;;
36415;SDS011;22447;44.530;18.620;2023-09-19T03:17:48;25.10;;;16.65;;
36415;SDS011;22447;44.530;18.620;2023-09-19T03:20:19;23.65;;;16.23;;
36415;SDS011;22447;44.530;18.620;2023-09-19T03:22:47;23.08;;;16.05;;
36415;SDS011;22447;44.530;18.620;2023-09-19T03:25:14;27.55;;;17.08;;
36415;SDS011;22447;44.530;18.620;2023-09-19T03:27:44;23.25;;;16.92;;
36415;SDS011;22447;44.530;18.620;2023-09-19T03:30:12;27.00;;;17.35;;
36415;SDS011;22447;44.530;18.620;2023-09-19T03:32:45;23.60;;;16.38;;
36415;SDS011;22447;44.530;18.620;2023-09-19T03:35:13;24.95;;;17.02;;
36415;SDS011;22447;44.530;18.620;2023-09-19T03:37:40;25.60;;;16.88;;
36415;SDS011;22447;44.530;18.620;2023-09-19T03:40:07;24.23;;;17.45;;
36415;SDS011;22447;44.530;18.620;2023-09-19T03:42:39;24.77;;;15.98;;
36415;SDS011;22447;44.530;18.620;2023-09-19T03:45:09;26.65;;;16.42;;
36415;SDS011;22447;44.530;18.620;2023-09-19T03:47:46;28.13;;;17.73;;
36415;SDS011;22447;44.530;18.620;2023-09-19T03:50:17;20.30;;;15.25;;
36415;SDS011;22447;44.530;18.620;2023-09-19T03:52:44;21.40;;;15.68;;
36415;SDS011;22447;44.530;18.620;2023-09-19T03:55:10;23.88;;;16.83;;
36415;SDS011;22447;44.530;18.620;2023-09-19T03:57:37;25.45;;;16.38;;
36415;SDS011;22447;44.530;18.620;2023-09-19T04:00:04;22.67;;;16.30;;
36415;SDS011;22447;44.530;18.620;2023-09-19T04:02:38;22.35;;;15.05;;
36415;SDS011;22447;44.530;18.620;2023-09-19T04:05:05;24.52;;;16.63;;
36415;SDS011;22447;44.530;18.620;2023-09-19T04:07:31;20.50;;;16.30;;
36415;SDS011;22447;44.530;18.620;2023-09-19T04:09:57;24.40;;;17.67;;
36415;SDS011;22447;44.530;18.620;2023-09-19T04:12:23;22.75;;;16.88;;
36415;SDS011;22447;44.530;18.620;2023-09-19T04:14:49;24.83;;;16.25;;
36415;SDS011;22447;44.530;18.620;2023-09-19T04:17:15;25.40;;;16.17;;
36415;SDS011;22447;44.530;18.620;2023-09-19T04:19:41;21.40;;;15.85;;
36415;SDS011;22447;44.530;18.620;2023-09-19T04:22:07;22.35;;;16.60;;
36415;SDS011;22447;44.530;18.620;2023-09-19T04:24:34;24.27;;;16.58;;
36415;SDS011;22447;44.530;18.620;2023-09-19T04:27:00;29.77;;;17.52;;
36415;SDS011;22447;44.530;18.620;2023-09-19T04:29:26;24.05;;;15.82;;
36415;SDS011;22447;44.530;18.620;2023-09-19T04:31:54;32.92;;;17.10;;
36415;SDS011;22447;44.530;18.620;2023-09-19T04:34:21;26.23;;;16.80;;
36415;SDS011;22447;44.530;18.620;2023-09-19T04:36:49;28.23;;;17.98;;
36415;SDS011;22447;44.530;18.620;2023-09-19T04:39:14;23.10;;;16.15;;
36415;SDS011;22447;44.530;18.620;2023-09-19T04:41:41;25.38;;;16.25;;
36415;SDS011;22447;44.530;18.620;2023-09-19T04:44:07;27.80;;;16.58;;
36415;SDS011;22447;44.530;18.620;2023-09-19T04:46:34;24.25;;;16.38;;
36415;SDS011;22447;44.530;18.620;2023-09-19T04:49:00;28.42;;;16.52;;
36415;SDS011;22447;44.530;18.620;2023-09-19T04:51:27;31.83;;;17.40;;
36415;SDS011;22447;44.530;18.620;2023-09-19T04:53:55;26.17;;;16.27;;
36415;SDS011;22447;44.530;18.620;2023-09-19T04:56:21;26.25;;;17.13;;
36415;SDS011;22447;44.530;18.620;2023-09-19T04:58:48;24.17;;;15.73;;
36415;SDS011;22447;44.530;18.620;2023-09-19T05:01:14;33.00;;;17.77;;
36415;SDS011;22447;44.530;18.620;2023-09-19T05:03:40;32.15;;;17.10;;
36415;SDS011;22447;44.530;18.620;2023-09-19T05:06:07;36.70;;;18.75;;
36415;SDS011;22447;44.530;18.620;2023-09-19T05:08:33;34.03;;;17.20;;
36415;SDS011;22447;44.530;18.620;2023-09-19T05:11:01;32.90;;;16.33;;
36415;SDS011;22447;44.530;18.620;2023-09-19T05:13:27;28.27;;;16.23;;
36415;SDS011;22447;44.530;18.620;2023-09-19T05:15:53;23.17;;;15.80;;
36415;SDS011;22447;44.530;18.620;2023-09-19T05:18:19;30.27;;;16.00;;
36415;SDS011;22447;44.530;18.620;2023-09-19T05:20:47;25.98;;;15.50;;
36415;SDS011;22447;44.530;18.620;2023-09-19T05:23:14;25.45;;;15.15;;
36415;SDS011;22447;44.530;18.620;2023-09-19T05:25:39;24.42;;;15.77;;
36415;SDS011;22447;44.530;18.620;2023-09-19T05:28:06;24.02;;;15.25;;
36415;SDS011;22447;44.530;18.620;2023-09-19T05:30:33;28.92;;;15.90;;
36415;SDS011;22447;44.530;18.620;2023-09-19T05:33:01;30.83;;;15.90;;
36415;SDS011;22447;44.530;18.620;2023-09-19T05:35:29;27.00;;;14.98;;
36415;SDS011;22447;44.530;18.620;2023-09-19T05:37:56;33.25;;;14.90;;
36415;SDS011;22447;44.530;18.620;2023-09-19T05:40:23;34.72;;;16.73;;
36415;SDS011;22447;44.530;18.620;2023-09-19T05:42:50;26.33;;;14.57;;
36415;SDS011;22447;44.530;18.620;2023-09-19T05:45:16;24.55;;;14.18;;
36415;SDS011;22447;44.530;18.620;2023-09-19T05:47:51;36.53;;;14.60;;
36415;SDS011;22447;44.530;18.620;2023-09-19T05:50:25;33.20;;;15.52;;
36415;SDS011;22447;44.530;18.620;2023-09-19T05:52:55;29.73;;;16.48;;
36415;SDS011;22447;44.530;18.620;2023-09-19T05:55:30;39.80;;;18.05;;
36415;SDS011;22447;44.530;18.620;2023-09-19T05:58:02;38.35;;;16.98;;
36415;SDS011;22447;44.530;18.620;2023-09-19T06:00:31;36.88;;;16.85;;
36415;SDS011;22447;44.530;18.620;2023-09-19T06:02:59;33.15;;;16.85;;
36415;SDS011;22447;44.530;18.620;2023-09-19T06:05:25;43.83;;;15.82;;
36415;SDS011;22447;44.530;18.620;2023-09-19T06:07:54;35.70;;;15.82;;
36415;SDS011;22447;44.530;18.620;2023-09-19T06:10:21;32.22;;;14.52;;
36415;SDS011;22447;44.530;18.620;2023-09-19T06:12:48;37.42;;;14.43;;
36415;SDS011;22447;44.530;18.620;2023-09-19T06:15:15;46.25;;;16.88;;
36415;SDS011;22447;44.530;18.620;2023-09-19T06:17:48;49.25;;;18.48;;
36415;SDS011;22447;44.530;18.620;2023-09-19T06:20:15;50.13;;;18.88;;
36415;SDS011;22447;44.530;18.620;2023-09-19T06:22:45;55.43;;;18.87;;
36415;SDS011;22447;44.530;18.620;2023-09-19T06:25:11;49.58;;;17.73;;
36415;SDS011;22447;44.530;18.620;2023-09-19T06:27:44;51.05;;;19.42;;
36415;SDS011;22447;44.530;18.620;2023-09-19T06:30:11;80.70;;;45.60;;
36415;SDS011;22447;44.530;18.620;2023-09-19T06:32:37;131.48;;;58.30;;
36415;SDS011;22447;44.530;18.620;2023-09-19T06:35:04;91.18;;;45.13;;
36415;SDS011;22447;44.530;18.620;2023-09-19T06:37:35;68.85;;;30.48;;
36415;SDS011;22447;44.530;18.620;2023-09-19T06:40:04;51.75;;;21.58;;
36415;SDS011;22447;44.530;18.620;2023-09-19T06:42:42;46.75;;;16.27;;
36415;SDS011;22447;44.530;18.620;2023-09-19T06:45:15;38.35;;;14.70;;
36415;SDS011;22447;44.530;18.620;2023-09-19T06:47:44;41.13;;;13.35;;
36415;SDS011;22447;44.530;18.620;2023-09-19T06:50:11;33.53;;;13.40;;
36415;SDS011;22447;44.530;18.620;2023-09-19T06:52:42;33.25;;;13.07;;
36415;SDS011;22447;44.530;18.620;2023-09-19T06:55:08;28.80;;;12.23;;
36415;SDS011;22447;44.530;18.620;2023-09-19T06:57:37;39.42;;;13.40;;
36415;SDS011;22447;44.530;18.620;2023-09-19T07:00:03;31.67;;;12.65;;
36415;SDS011;22447;44.530;18.620;2023-09-19T07:02:34;23.70;;;12.32;;
36415;SDS011;22447;44.530;18.620;2023-09-19T07:05:00;26.08;;;12.57;;
36415;SDS011;22447;44.530;18.620;2023-09-19T07:07:26;35.58;;;11.98;;
36415;SDS011;22447;44.530;18.620;2023-09-19T07:09:58;35.08;;;12.13;;
36415;SDS011;22447;44.530;18.620;2023-09-19T07:12:24;28.73;;;13.20;;
36415;SDS011;22447;44.530;18.620;2023-09-19T07:14:54;30.02;;;13.40;;
36415;SDS011;22447;44.530;18.620;2023-09-19T07:17:23;33.13;;;16.50;;
36415;SDS011;22447;44.530;18.620;2023-09-19T07:19:50;40.17;;;15.00;;
36415;SDS011;22447;44.530;18.620;2023-09-19T07:22:16;49.50;;;14.68;;
36415;SDS011;22447;44.530;18.620;2023-09-19T07:24:42;32.97;;;13.93;;
36415;SDS011;22447;44.530;18.620;2023-09-19T07:27:08;28.10;;;13.90;;
36415;SDS011;22447;44.530;18.620;2023-09-19T07:29:34;26.65;;;11.65;;
36415;SDS011;22447;44.530;18.620;2023-09-19T07:32:03;40.80;;;13.98;;
36415;SDS011;22447;44.530;18.620;2023-09-19T07:34:29;35.10;;;11.52;;
36415;SDS011;22447;44.530;18.620;2023-09-19T07:36:55;37.33;;;12.30;;
36415;SDS011;22447;44.530;18.620;2023-09-19T07:39:21;41.97;;;12.05;;
36415;SDS011;22447;44.530;18.620;2023-09-19T07:41:47;36.92;;;12.52;;
36415;SDS011;22447;44.530;18.620;2023-09-19T07:44:14;58.65;;;14.77;;
36415;SDS011;22447;44.530;18.620;2023-09-19T07:46:40;59.10;;;19.13;;
36415;SDS011;22447;44.530;18.620;2023-09-19T07:49:06;56.25;;;17.02;;
36415;SDS011;22447;44.530;18.620;2023-09-19T07:51:33;51.28;;;16.95;;
36415;SDS011;22447;44.530;18.620;2023-09-19T07:54:00;66.72;;;16.75;;
36415;SDS011;22447;44.530;18.620;2023-09-19T07:56:26;56.47;;;17.17;;
36415;SDS011;22447;44.530;18.620;2023-09-19T07:58:53;44.72;;;14.40;;
36415;SDS011;22447;44.530;18.620;2023-09-19T08:01:18;44.58;;;13.27;;
36415;SDS011;22447;44.530;18.620;2023-09-19T08:03:44;43.00;;;13.00;;
36415;SDS011;22447;44.530;18.620;2023-09-19T08:06:10;47.40;;;11.93;;
36415;SDS011;22447;44.530;18.620;2023-09-19T08:08:36;43.47;;;12.13;;
36415;SDS011;22447;44.530;18.620;2023-09-19T08:11:03;34.28;;;9.60;;
36415;SDS011;22447;44.530;18.620;2023-09-19T08:13:41;39.00;;;11.77;;
36415;SDS011;22447;44.530;18.620;2023-09-19T08:16:10;36.63;;;12.05;;
36415;SDS011;22447;44.530;18.620;2023-09-19T08:18:37;37.90;;;10.48;;
36415;SDS011;22447;44.530;18.620;2023-09-19T08:21:05;39.58;;;10.95;;
36415;SDS011;22447;44.530;18.620;2023-09-19T08:23:44;35.47;;;11.25;;
36415;SDS011;22447;44.530;18.620;2023-09-19T08:26:11;34.92;;;11.65;;
36415;SDS011;22447;44.530;18.620;2023-09-19T08:28:37;38.92;;;11.93;;
36415;SDS011;22447;44.530;18.620;2023-09-19T08:31:06;43.92;;;12.13;;
36415;SDS011;22447;44.530;18.620;2023-09-19T08:33:35;57.60;;;14.38;;
36415;SDS011;22447;44.530;18.620;2023-09-19T08:36:02;54.42;;;12.70;;
36415;SDS011;22447;44.530;18.620;2023-09-19T08:38:33;32.80;;;10.73;;
36415;SDS011;22447;44.530;18.620;2023-09-19T08:41:00;48.38;;;12.40;;
36415;SDS011;22447;44.530;18.620;2023-09-19T08:43:30;35.53;;;10.68;;
36415;SDS011;22447;44.530;18.620;2023-09-19T08:46:02;26.10;;;8.80;;
36415;SDS011;22447;44.530;18.620;2023-09-19T08:48:34;30.08;;;9.48;;
36415;SDS011;22447;44.530;18.620;2023-09-19T08:51:06;33.75;;;9.65;;
36415;SDS011;22447;44.530;18.620;2023-09-19T08:53:41;35.40;;;9.80;;
36415;SDS011;22447;44.530;18.620;2023-09-19T08:56:24;26.92;;;7.15;;
36415;SDS011;22447;44.530;18.620;2023-09-19T08:58:55;29.23;;;7.50;;
36415;SDS011;22447;44.530;18.620;2023-09-19T09:01:27;27.27;;;8.13;;
36415;SDS011;22447;44.530;18.620;2023-09-19T09:03:54;26.10;;;7.13;;
36415;SDS011;22447;44.530;18.620;2023-09-19T09:06:21;21.13;;;6.00;;
36415;SDS011;22447;44.530;18.620;2023-09-19T09:08:50;27.67;;;7.18;;
36415;SDS011;22447;44.530;18.620;2023-09-19T09:11:17;30.88;;;7.40;;
36415;SDS011;22447;44.530;18.620;2023-09-19T09:13:44;26.58;;;8.05;;
36415;SDS011;22447;44.530;18.620;2023-09-19T09:16:11;28.85;;;7.03;;
36415;SDS011;22447;44.530;18.620;2023-09-19T09:18:38;22.27;;;6.90;;
36415;SDS011;22447;44.530;18.620;2023-09-19T09:21:06;28.90;;;7.35;;
36415;SDS011;22447;44.530;18.620;2023-09-19T09:23:32;24.17;;;7.00;;
36415;SDS011;22447;44.530;18.620;2023-09-19T09:25:58;31.35;;;7.72;;
36415;SDS011;22447;44.530;18.620;2023-09-19T09:28:29;26.70;;;7.60;;
36415;SDS011;22447;44.530;18.620;2023-09-19T09:30:59;31.75;;;7.82;;
36415;SDS011;22447;44.530;18.620;2023-09-19T09:33:33;27.33;;;6.68;;
36415;SDS011;22447;44.530;18.620;2023-09-19T09:36:00;31.77;;;6.57;;
36415;SDS011;22447;44.530;18.620;2023-09-19T09:38:29;31.23;;;6.40;;
36415;SDS011;22447;44.530;18.620;2023-09-19T09:41:08;33.10;;;6.90;;
36415;SDS011;22447;44.530;18.620;2023-09-19T09:43:35;31.98;;;6.20;;
36415;SDS011;22447;44.530;18.620;2023-09-19T09:46:07;37.83;;;6.82;;
36415;SDS011;22447;44.530;18.620;2023-09-19T09:49:13;26.88;;;6.53;;
36415;SDS011;22447;44.530;18.620;2023-09-19T09:52:00;35.95;;;7.10;;
36415;SDS011;22447;44.530;18.620;2023-09-19T09:54:33;31.30;;;6.60;;
36415;SDS011;22447;44.530;18.620;2023-09-19T09:59:51;26.88;;;6.35;;
36415;SDS011;22447;44.530;18.620;2023-09-19T10:02:40;31.08;;;6.35;;
36415;SDS011;22447;44.530;18.620;2023-09-19T10:05:19;30.67;;;6.18;;
36415;SDS011;22447;44.530;18.620;2023-09-19T10:07:47;28.30;;;5.93;;
36415;SDS011;22447;44.530;18.620;2023-09-19T10:10:35;28.95;;;6.40;;
36415;SDS011;22447;44.530;18.620;2023-09-19T10:13:08;32.30;;;7.07;;
36415;SDS011;22447;44.530;18.620;2023-09-19T10:15:43;24.30;;;5.35;;
36415;SDS011;22447;44.530;18.620;2023-09-19T10:18:23;20.73;;;5.45;;
36415;SDS011;22447;44.530;18.620;2023-09-19T10:20:50;29.58;;;6.20;;
36415;SDS011;22447;44.530;18.620;2023-09-19T10:23:17;25.90;;;6.82;;
36415;SDS011;22447;44.530;18.620;2023-09-19T10:25:48;35.97;;;7.38;;
36415;SDS011;22447;44.530;18.620;2023-09-19T10:28:16;32.38;;;6.70;;
36415;SDS011;22447;44.530;18.620;2023-09-19T10:30:52;30.83;;;6.72;;
36415;SDS011;22447;44.530;18.620;2023-09-19T10:33:20;22.88;;;6.85;;
36415;SDS011;22447;44.530;18.620;2023-09-19T10:35:52;26.30;;;6.75;;
36415;SDS011;22447;44.530;18.620;2023-09-19T10:38:30;32.85;;;7.35;;
36415;SDS011;22447;44.530;18.620;2023-09-19T10:41:07;25.02;;;6.72;;
36415;SDS011;22447;44.530;18.620;2023-09-19T10:43:36;29.38;;;6.15;;
36415;SDS011;22447;44.530;18.620;2023-09-19T10:46:08;26.83;;;6.45;;
36415;SDS011;22447;44.530;18.620;2023-09-19T10:48:38;22.75;;;6.00;;
36415;SDS011;22447;44.530;18.620;2023-09-19T10:51:09;22.05;;;5.75;;
36415;SDS011;22447;44.530;18.620;2023-09-19T10:56:27;23.92;;;5.80;;
36415;SDS011;22447;44.530;18.620;2023-09-19T10:59:08;40.63;;;8.63;;
36415;SDS011;22447;44.530;18.620;2023-09-19T11:07:00;34.15;;;9.45;;
36415;SDS011;22447;44.530;18.620;2023-09-19T11:15:06;27.88;;;6.65;;
36415;SDS011;22447;44.530;18.620;2023-09-19T11:17:34;24.48;;;5.70;;
36415;SDS011;22447;44.530;18.620;2023-09-19T11:30:41;30.40;;;7.72;;
36415;SDS011;22447;44.530;18.620;2023-09-19T11:43:46;23.98;;;6.68;;
36415;SDS011;22447;44.530;18.620;2023-09-19T11:46:20;24.00;;;5.95;;
36415;SDS011;22447;44.530;18.620;2023-09-19T11:48:50;23.20;;;6.38;;
36415;SDS011;22447;44.530;18.620;2023-09-19T11:51:21;29.90;;;6.57;;
36415;SDS011;22447;44.530;18.620;2023-09-19T11:54:01;33.50;;;6.65;;
36415;SDS011;22447;44.530;18.620;2023-09-19T11:56:44;24.55;;;6.25;;
36415;SDS011;22447;44.530;18.620;2023-09-19T11:59:24;31.33;;;6.90;;
36415;SDS011;22447;44.530;18.620;2023-09-19T12:02:05;35.03;;;7.15;;
36415;SDS011;22447;44.530;18.620;2023-09-19T12:04:36;24.05;;;6.25;;
36415;SDS011;22447;44.530;18.620;2023-09-19T12:07:04;27.55;;;6.72;;
36415;SDS011;22447;44.530;18.620;2023-09-19T12:09:47;23.85;;;6.72;;
36415;SDS011;22447;44.530;18.620;2023-09-19T12:12:24;26.17;;;7.50;;
36415;SDS011;22447;44.530;18.620;2023-09-19T12:14:56;26.77;;;6.47;;
36415;SDS011;22447;44.530;18.620;2023-09-19T12:17:38;26.52;;;6.90;;
36415;SDS011;22447;44.530;18.620;2023-09-19T12:20:06;27.92;;;6.68;;
36415;SDS011;22447;44.530;18.620;2023-09-19T12:22:45;31.10;;;7.93;;
36415;SDS011;22447;44.530;18.620;2023-09-19T12:25:15;29.88;;;6.95;;
36415;SDS011;22447;44.530;18.620;2023-09-19T12:27:47;29.20;;;6.40;;
36415;SDS011;22447;44.530;18.620;2023-09-19T12:30:18;29.17;;;7.60;;
36415;SDS011;22447;44.530;18.620;2023-09-19T12:32:46;25.70;;;6.80;;
36415;SDS011;22447;44.530;18.620;2023-09-19T12:35:27;21.67;;;6.28;;
36415;SDS011;22447;44.530;18.620;2023-09-19T12:37:55;31.50;;;8.50;;
36415;SDS011;22447;44.530;18.620;2023-09-19T12:40:22;32.85;;;6.82;;
36415;SDS011;22447;44.530;18.620;2023-09-19T12:42:53;42.75;;;7.90;;
36415;SDS011;22447;44.530;18.620;2023-09-19T12:45:32;37.20;;;7.23;;
36415;SDS011;22447;44.530;18.620;2023-09-19T12:53:41;17.63;;;5.50;;
36415;SDS011;22447;44.530;18.620;2023-09-19T12:56:15;24.02;;;6.90;;
36415;SDS011;22447;44.530;18.620;2023-09-19T12:59:01;28.52;;;7.40;;
36415;SDS011;22447;44.530;18.620;2023-09-19T13:01:29;32.15;;;7.47;;
36415;SDS011;22447;44.530;18.620;2023-09-19T13:06:47;22.98;;;7.05;;
36415;SDS011;22447;44.530;18.620;2023-09-19T13:09:14;26.30;;;5.85;;
36415;SDS011;22447;44.530;18.620;2023-09-19T13:11:42;27.50;;;7.22;;
36415;SDS011;22447;44.530;18.620;2023-09-19T13:14:15;18.80;;;7.18;;
36415;SDS011;22447;44.530;18.620;2023-09-19T13:19:48;28.63;;;9.23;;
36415;SDS011;22447;44.530;18.620;2023-09-19T13:22:39;27.35;;;8.30;;
36415;SDS011;22447;44.530;18.620;2023-09-19T13:25:12;25.77;;;8.63;;
36415;SDS011;22447;44.530;18.620;2023-09-19T13:27:41;21.88;;;7.82;;
36415;SDS011;22447;44.530;18.620;2023-09-19T13:30:09;18.75;;;7.07;;
36415;SDS011;22447;44.530;18.620;2023-09-19T13:32:36;32.85;;;7.78;;
36415;SDS011;22447;44.530;18.620;2023-09-19T13:35:04;31.48;;;6.88;;
36415;SDS011;22447;44.530;18.620;2023-09-19T13:37:30;26.75;;;7.40;;
36415;SDS011;22447;44.530;18.620;2023-09-19T13:39:59;23.10;;;6.35;;
36415;SDS011;22447;44.530;18.620;2023-09-19T13:42:25;20.33;;;6.60;;
36415;SDS011;22447;44.530;18.620;2023-09-19T13:44:55;20.23;;;6.82;;
36415;SDS011;22447;44.530;18.620;2023-09-19T13:47:21;23.60;;;6.30;;
36415;SDS011;22447;44.530;18.620;2023-09-19T13:49:50;27.65;;;7.63;;
36415;SDS011;22447;44.530;18.620;2023-09-19T13:52:18;22.25;;;6.50;;
36415;SDS011;22447;44.530;18.620;2023-09-19T13:54:45;23.33;;;6.45;;
36415;SDS011;22447;44.530;18.620;2023-09-19T13:57:11;18.65;;;6.78;;
36415;SDS011;22447;44.530;18.620;2023-09-19T13:59:37;21.13;;;6.38;;
36415;SDS011;22447;44.530;18.620;2023-09-19T14:02:03;20.77;;;7.22;;
36415;SDS011;22447;44.530;18.620;2023-09-19T14:04:31;26.05;;;7.43;;
36415;SDS011;22447;44.530;18.620;2023-09-19T14:06:57;21.50;;;6.63;;
36415;SDS011;22447;44.530;18.620;2023-09-19T14:09:23;19.20;;;6.85;;
36415;SDS011;22447;44.530;18.620;2023-09-19T14:11:50;24.17;;;7.60;;
36415;SDS011;22447;44.530;18.620;2023-09-19T14:14:18;18.60;;;6.55;;
36415;SDS011;22447;44.530;18.620;2023-09-19T14:16:45;22.20;;;7.28;;
36415;SDS011;22447;44.530;18.620;2023-09-19T14:19:12;26.17;;;8.00;;
36415;SDS011;22447;44.530;18.620;2023-09-19T14:21:41;21.63;;;7.22;;
36415;SDS011;22447;44.530;18.620;2023-09-19T14:24:08;29.40;;;7.97;;
36415;SDS011;22447;44.530;18.620;2023-09-19T14:26:37;25.45;;;7.10;;
36415;SDS011;22447;44.530;18.620;2023-09-19T14:29:06;22.52;;;7.10;;
36415;SDS011;22447;44.530;18.620;2023-09-19T14:31:33;24.50;;;8.10;;
36415;SDS011;22447;44.530;18.620;2023-09-19T14:33:59;25.20;;;7.72;;
36415;SDS011;22447;44.530;18.620;2023-09-19T14:36:25;34.25;;;8.73;;
36415;SDS011;22447;44.530;18.620;2023-09-19T14:38:55;29.35;;;8.10;;
36415;SDS011;22447;44.530;18.620;2023-09-19T14:41:22;25.38;;;8.00;;
36415;SDS011;22447;44.530;18.620;2023-09-19T14:43:50;22.02;;;7.20;;
36415;SDS011;22447;44.530;18.620;2023-09-19T14:46:17;30.98;;;8.60;;
36415;SDS011;22447;44.530;18.620;2023-09-19T14:48:44;18.75;;;8.38;;
36415;SDS011;22447;44.530;18.620;2023-09-19T14:51:13;28.80;;;8.95;;
36415;SDS011;22447;44.530;18.620;2023-09-19T14:53:40;30.60;;;8.23;;
36415;SDS011;22447;44.530;18.620;2023-09-19T14:56:07;29.67;;;9.57;;
36415;SDS011;22447;44.530;18.620;2023-09-19T14:58:34;24.67;;;8.40;;
36415;SDS011;22447;44.530;18.620;2023-09-19T15:01:10;27.95;;;8.60;;
36415;SDS011;22447;44.530;18.620;2023-09-19T15:03:38;26.88;;;7.78;;
36415;SDS011;22447;44.530;18.620;2023-09-19T15:06:07;20.17;;;7.20;;
36415;SDS011;22447;44.530;18.620;2023-09-19T15:08:35;30.98;;;8.25;;
36415;SDS011;22447;44.530;18.620;2023-09-19T15:11:09;19.63;;;6.78;;
36415;SDS011;22447;44.530;18.620;2023-09-19T15:13:37;25.80;;;7.57;;
36415;SDS011;22447;44.530;18.620;2023-09-19T15:16:04;22.38;;;8.10;;
36415;SDS011;22447;44.530;18.620;2023-09-19T15:18:34;23.55;;;7.72;;
36415;SDS011;22447;44.530;18.620;2023-09-19T15:21:04;30.23;;;8.90;;
36415;SDS011;22447;44.530;18.620;2023-09-19T15:23:31;28.77;;;9.80;;
36415;SDS011;22447;44.530;18.620;2023-09-19T15:26:01;26.00;;;8.03;;
36415;SDS011;22447;44.530;18.620;2023-09-19T15:28:27;24.80;;;7.15;;
36415;SDS011;22447;44.530;18.620;2023-09-19T15:31:04;23.65;;;7.63;;
36415;SDS011;22447;44.530;18.620;2023-09-19T15:33:32;22.85;;;7.45;;
36415;SDS011;22447;44.530;18.620;2023-09-19T15:36:02;28.23;;;7.30;;